sensor_id;sensor_type;location;lat;lon;timestamp;temperature;humidity
8888;DHT22;4480;52.370;9.748;2023-03-13T00:01:21;8.60;99.90
8888;DHT22;4480;52.370;9.748;2023-03-13T00:03:49;8.60;99.90
8888;DHT22;4480;52.370;9.748;2023-03-13T00:06:16;8.60;99.90
8888;DHT22;4480;52.370;9.748;2023-03-13T00:08:43;8.60;99.90
8888;DHT22;4480;52.370;9.748;2023-03-13T00:11:12;8.50;99.90
8888;DHT22;4480;52.370;9.748;2023-03-13T00:13:41;8.50;99.90
8888;DHT22;4480;52.370;9.748;2023-03-13T00:16:10;8.50;99.90
8888;DHT22;4480;52.370;9.748;2023-03-13T00:18:36;8.50;99.90
8888;DHT22;4480;52.370;9.748;2023-03-13T00:21:05;8.60;99.90
8888;DHT22;4480;52.370;9.748;2023-03-13T00:23:33;8.60;99.90
8888;DHT22;4480;52.370;9.748;2023-03-13T00:26:02;8.60;99.90
8888;DHT22;4480;52.370;9.748;2023-03-13T00:28:30;8.50;99.90
8888;DHT22;4480;52.370;9.748;2023-03-13T00:31:02;8.50;99.90
8888;DHT22;4480;52.370;9.748;2023-03-13T00:33:31;8.60;99.90
8888;DHT22;4480;52.370;9.748;2023-03-13T00:35:58;8.60;99.90
8888;DHT22;4480;52.370;9.748;2023-03-13T00:38:27;8.60;99.90
8888;DHT22;4480;52.370;9.748;2023-03-13T00:40:59;8.60;99.90
8888;DHT22;4480;52.370;9.748;2023-03-13T00:43:26;8.60;99.90
8888;DHT22;4480;52.370;9.748;2023-03-13T00:45:53;8.70;99.90
8888;DHT22;4480;52.370;9.748;2023-03-13T00:48:21;8.70;99.90
8888;DHT22;4480;52.370;9.748;2023-03-13T00:50:48;8.70;99.90
8888;DHT22;4480;52.370;9.748;2023-03-13T00:53:15;8.70;99.90
8888;DHT22;4480;52.370;9.748;2023-03-13T00:55:51;8.80;99.90
8888;DHT22;4480;52.370;9.748;2023-03-13T00:58:18;8.80;99.90
8888;DHT22;4480;52.370;9.748;2023-03-13T01:00:45;8.80;99.90
8888;DHT22;4480;52.370;9.748;2023-03-13T01:03:12;8.90;99.90
8888;DHT22;4480;52.370;9.748;2023-03-13T01:05:40;8.90;99.90
8888;DHT22;4480;52.370;9.748;2023-03-13T01:08:06;8.90;99.90
8888;DHT22;4480;52.370;9.748;2023-03-13T01:10:33;8.90;99.90
8888;DHT22;4480;52.370;9.748;2023-03-13T01:13:00;9.00;99.90
8888;DHT22;4480;52.370;9.748;2023-03-13T01:15:29;9.00;99.90
8888;DHT22;4480;52.370;9.748;2023-03-13T01:17:56;9.00;99.90
8888;DHT22;4480;52.370;9.748;2023-03-13T01:20:22;9.00;99.90
8888;DHT22;4480;52.370;9.748;2023-03-13T01:22:50;9.00;99.90
8888;DHT22;4480;52.370;9.748;2023-03-13T01:25:17;9.00;99.90
8888;DHT22;4480;52.370;9.748;2023-03-13T01:27:44;9.00;99.90
8888;DHT22;4480;52.370;9.748;2023-03-13T01:30:11;9.00;99.90
8888;DHT22;4480;52.370;9.748;2023-03-13T01:32:38;9.00;99.90
8888;DHT22;4480;52.370;9.748;2023-03-13T01:35:05;9.00;99.90
8888;DHT22;4480;52.370;9.748;2023-03-13T01:37:32;9.00;99.90
8888;DHT22;4480;52.370;9.748;2023-03-13T01:40:00;8.90;99.90
8888;DHT22;4480;52.370;9.748;2023-03-13T01:42:28;8.90;99.90
8888;DHT22;4480;52.370;9.748;2023-03-13T01:44:56;8.90;99.90
8888;DHT22;4480;52.370;9.748;2023-03-13T01:47:22;8.80;99.90
8888;DHT22;4480;52.370;9.748;2023-03-13T01:49:50;8.80;99.90
8888;DHT22;4480;52.370;9.748;2023-03-13T01:52:23;8.70;99.90
8888;DHT22;4480;52.370;9.748;2023-03-13T01:54:54;8.70;99.90
8888;DHT22;4480;52.370;9.748;2023-03-13T01:57:26;8.60;99.90
8888;DHT22;4480;52.370;9.748;2023-03-13T01:59:55;8.50;99.90
8888;DHT22;4480;52.370;9.748;2023-03-13T02:02:25;8.50;99.90
8888;DHT22;4480;52.370;9.748;2023-03-13T02:04:55;8.40;99.90
8888;DHT22;4480;52.370;9.748;2023-03-13T02:07:25;8.40;99.90
8888;DHT22;4480;52.370;9.748;2023-03-13T02:09:54;8.30;99.90
8888;DHT22;4480;52.370;9.748;2023-03-13T02:12:28;8.30;99.90
8888;DHT22;4480;52.370;9.748;2023-03-13T02:14:57;8.30;99.90
8888;DHT22;4480;52.370;9.748;2023-03-13T02:17:26;8.20;99.90
8888;DHT22;4480;52.370;9.748;2023-03-13T02:19:53;8.20;99.90
8888;DHT22;4480;52.370;9.748;2023-03-13T02:22:23;8.20;99.90
8888;DHT22;4480;52.370;9.748;2023-03-13T02:24:57;8.10;99.90
8888;DHT22;4480;52.370;9.748;2023-03-13T02:27:27;8.10;99.90
8888;DHT22;4480;52.370;9.748;2023-03-13T02:29:53;8.10;99.90
8888;DHT22;4480;52.370;9.748;2023-03-13T02:32:21;8.10;99.90
8888;DHT22;4480;52.370;9.748;2023-03-13T02:34:50;8.10;99.90
8888;DHT22;4480;52.370;9.748;2023-03-13T02:37:20;8.10;99.90
8888;DHT22;4480;52.370;9.748;2023-03-13T02:39:48;8.10;99.90
8888;DHT22;4480;52.370;9.748;2023-03-13T02:42:17;8.10;99.90
8888;DHT22;4480;52.370;9.748;2023-03-13T02:44:46;8.10;99.90
8888;DHT22;4480;52.370;9.748;2023-03-13T02:47:17;8.10;99.90
8888;DHT22;4480;52.370;9.748;2023-03-13T02:49:44;8.10;99.90
8888;DHT22;4480;52.370;9.748;2023-03-13T02:52:14;8.10;99.90
8888;DHT22;4480;52.370;9.748;2023-03-13T02:54:43;8.10;99.90
8888;DHT22;4480;52.370;9.748;2023-03-13T02:57:11;8.10;99.90
8888;DHT22;4480;52.370;9.748;2023-03-13T02:59:37;8.10;99.90
8888;DHT22;4480;52.370;9.748;2023-03-13T03:02:06;8.10;99.90
8888;DHT22;4480;52.370;9.748;2023-03-13T03:04:32;8.10;99.90
8888;DHT22;4480;52.370;9.748;2023-03-13T03:06:59;8.10;99.90
8888;DHT22;4480;52.370;9.748;2023-03-13T03:09:26;8.20;99.90
8888;DHT22;4480;52.370;9.748;2023-03-13T03:11:52;8.20;99.90
8888;DHT22;4480;52.370;9.748;2023-03-13T03:14:19;8.20;99.90
8888;DHT22;4480;52.370;9.748;2023-03-13T03:16:46;8.20;99.90
8888;DHT22;4480;52.370;9.748;2023-03-13T03:19:14;8.20;99.90
8888;DHT22;4480;52.370;9.748;2023-03-13T03:21:41;8.20;99.90
8888;DHT22;4480;52.370;9.748;2023-03-13T03:24:08;8.20;99.90
8888;DHT22;4480;52.370;9.748;2023-03-13T03:26:35;8.20;99.90
8888;DHT22;4480;52.370;9.748;2023-03-13T03:29:02;8.20;99.90
8888;DHT22;4480;52.370;9.748;2023-03-13T03:31:29;8.20;99.90
8888;DHT22;4480;52.370;9.748;2023-03-13T03:33:56;8.20;99.90
8888;DHT22;4480;52.370;9.748;2023-03-13T03:36:24;8.10;99.90
8888;DHT22;4480;52.370;9.748;2023-03-13T03:38:51;8.10;99.90
8888;DHT22;4480;52.370;9.748;2023-03-13T03:41:18;8.10;99.90
8888;DHT22;4480;52.370;9.748;2023-03-13T03:43:45;8.10;99.90
8888;DHT22;4480;52.370;9.748;2023-03-13T03:46:13;8.10;99.90
8888;DHT22;4480;52.370;9.748;2023-03-13T03:48:40;8.10;99.90
8888;DHT22;4480;52.370;9.748;2023-03-13T03:51:07;8.10;99.90
8888;DHT22;4480;52.370;9.748;2023-03-13T03:53:35;8.20;99.90
8888;DHT22;4480;52.370;9.748;2023-03-13T03:56:02;8.20;99.90
8888;DHT22;4480;52.370;9.748;2023-03-13T03:58:29;8.20;99.90
8888;DHT22;4480;52.370;9.748;2023-03-13T04:00:56;8.20;99.90
8888;DHT22;4480;52.370;9.748;2023-03-13T04:03:23;8.30;99.90
8888;DHT22;4480;52.370;9.748;2023-03-13T04:05:50;8.30;99.90
8888;DHT22;4480;52.370;9.748;2023-03-13T04:11:19;8.30;99.90
8888;DHT22;4480;52.370;9.748;2023-03-13T04:13:46;8.30;99.90
8888;DHT22;4480;52.370;9.748;2023-03-13T04:16:12;8.30;99.90
8888;DHT22;4480;52.370;9.748;2023-03-13T04:18:39;8.30;99.90
8888;DHT22;4480;52.370;9.748;2023-03-13T04:21:07;8.30;99.90
8888;DHT22;4480;52.370;9.748;2023-03-13T04:23:33;8.30;99.90
8888;DHT22;4480;52.370;9.748;2023-03-13T04:26:00;8.30;99.90
8888;DHT22;4480;52.370;9.748;2023-03-13T04:28:28;8.30;99.90
8888;DHT22;4480;52.370;9.748;2023-03-13T04:30:55;8.30;99.90
8888;DHT22;4480;52.370;9.748;2023-03-13T04:33:22;8.30;99.90
8888;DHT22;4480;52.370;9.748;2023-03-13T04:35:49;8.30;99.90
8888;DHT22;4480;52.370;9.748;2023-03-13T04:38:16;8.30;99.90
8888;DHT22;4480;52.370;9.748;2023-03-13T04:40:43;8.20;99.90
8888;DHT22;4480;52.370;9.748;2023-03-13T04:43:09;8.20;99.90
8888;DHT22;4480;52.370;9.748;2023-03-13T04:45:37;8.20;99.90
8888;DHT22;4480;52.370;9.748;2023-03-13T04:48:04;8.20;99.90
8888;DHT22;4480;52.370;9.748;2023-03-13T04:50:31;8.20;99.90
8888;DHT22;4480;52.370;9.748;2023-03-13T04:52:58;8.20;99.90
8888;DHT22;4480;52.370;9.748;2023-03-13T04:55:25;8.20;99.90
8888;DHT22;4480;52.370;9.748;2023-03-13T04:57:51;8.20;99.90
8888;DHT22;4480;52.370;9.748;2023-03-13T05:00:19;8.20;99.90
8888;DHT22;4480;52.370;9.748;2023-03-13T05:02:47;8.30;99.90
8888;DHT22;4480;52.370;9.748;2023-03-13T05:05:14;8.30;99.90
8888;DHT22;4480;52.370;9.748;2023-03-13T05:07:40;8.30;99.90
8888;DHT22;4480;52.370;9.748;2023-03-13T05:10:08;8.20;99.90
8888;DHT22;4480;52.370;9.748;2023-03-13T05:12:35;8.20;99.90
8888;DHT22;4480;52.370;9.748;2023-03-13T05:15:01;8.20;99.90
8888;DHT22;4480;52.370;9.748;2023-03-13T05:17:28;8.20;99.90
8888;DHT22;4480;52.370;9.748;2023-03-13T05:19:56;8.20;99.90
8888;DHT22;4480;52.370;9.748;2023-03-13T05:22:23;8.30;99.90
8888;DHT22;4480;52.370;9.748;2023-03-13T05:24:50;8.20;99.90
8888;DHT22;4480;52.370;9.748;2023-03-13T05:27:17;8.20;99.90
8888;DHT22;4480;52.370;9.748;2023-03-13T05:29:43;8.20;99.90
8888;DHT22;4480;52.370;9.748;2023-03-13T05:32:10;8.30;99.90
8888;DHT22;4480;52.370;9.748;2023-03-13T05:34:37;8.30;99.90
8888;DHT22;4480;52.370;9.748;2023-03-13T05:37:05;8.30;99.90
8888;DHT22;4480;52.370;9.748;2023-03-13T05:39:32;8.30;99.90
8888;DHT22;4480;52.370;9.748;2023-03-13T05:41:58;8.30;99.90
8888;DHT22;4480;52.370;9.748;2023-03-13T05:44:25;8.30;99.90
8888;DHT22;4480;52.370;9.748;2023-03-13T05:46:52;8.30;99.90
8888;DHT22;4480;52.370;9.748;2023-03-13T05:49:19;8.30;99.90
8888;DHT22;4480;52.370;9.748;2023-03-13T05:51:45;8.30;99.90
8888;DHT22;4480;52.370;9.748;2023-03-13T05:54:14;8.30;99.90
8888;DHT22;4480;52.370;9.748;2023-03-13T05:56:40;8.40;99.90
8888;DHT22;4480;52.370;9.748;2023-03-13T05:59:07;8.40;99.90
8888;DHT22;4480;52.370;9.748;2023-03-13T06:01:34;8.40;99.90
8888;DHT22;4480;52.370;9.748;2023-03-13T06:04:00;8.40;99.90
8888;DHT22;4480;52.370;9.748;2023-03-13T06:06:27;8.50;99.90
8888;DHT22;4480;52.370;9.748;2023-03-13T06:08:54;8.50;99.90
8888;DHT22;4480;52.370;9.748;2023-03-13T06:11:22;8.60;99.90
8888;DHT22;4480;52.370;9.748;2023-03-13T06:13:50;8.60;99.90
8888;DHT22;4480;52.370;9.748;2023-03-13T06:16:17;8.70;99.90
8888;DHT22;4480;52.370;9.748;2023-03-13T06:18:43;8.70;99.90
8888;DHT22;4480;52.370;9.748;2023-03-13T06:21:10;8.70;99.90
8888;DHT22;4480;52.370;9.748;2023-03-13T06:23:37;8.80;99.90
8888;DHT22;4480;52.370;9.748;2023-03-13T06:26:04;8.80;99.90
8888;DHT22;4480;52.370;9.748;2023-03-13T06:28:32;8.80;99.90
8888;DHT22;4480;52.370;9.748;2023-03-13T06:31:03;8.80;99.90
8888;DHT22;4480;52.370;9.748;2023-03-13T06:33:30;8.80;99.90
8888;DHT22;4480;52.370;9.748;2023-03-13T06:35:58;8.90;99.90
8888;DHT22;4480;52.370;9.748;2023-03-13T06:38:25;8.90;99.90
8888;DHT22;4480;52.370;9.748;2023-03-13T06:40:53;8.90;99.90
8888;DHT22;4480;52.370;9.748;2023-03-13T06:43:20;8.90;99.90
8888;DHT22;4480;52.370;9.748;2023-03-13T06:45:49;9.00;99.90
8888;DHT22;4480;52.370;9.748;2023-03-13T06:48:16;9.00;99.90
8888;DHT22;4480;52.370;9.748;2023-03-13T06:50:43;9.00;99.90
8888;DHT22;4480;52.370;9.748;2023-03-13T06:53:13;9.10;99.90
8888;DHT22;4480;52.370;9.748;2023-03-13T06:55:41;9.10;99.90
8888;DHT22;4480;52.370;9.748;2023-03-13T06:58:08;9.20;99.90
8888;DHT22;4480;52.370;9.748;2023-03-13T07:00:34;9.20;99.90
8888;DHT22;4480;52.370;9.748;2023-03-13T07:03:05;9.20;99.90
8888;DHT22;4480;52.370;9.748;2023-03-13T07:05:32;9.20;99.90
8888;DHT22;4480;52.370;9.748;2023-03-13T07:07:58;9.20;99.90
8888;DHT22;4480;52.370;9.748;2023-03-13T07:10:25;9.20;99.90
8888;DHT22;4480;52.370;9.748;2023-03-13T07:12:52;9.20;99.90
8888;DHT22;4480;52.370;9.748;2023-03-13T07:15:19;9.30;99.90
8888;DHT22;4480;52.370;9.748;2023-03-13T07:17:45;9.30;99.90
8888;DHT22;4480;52.370;9.748;2023-03-13T07:20:14;9.30;99.90
8888;DHT22;4480;52.370;9.748;2023-03-13T07:22:41;9.40;99.90
8888;DHT22;4480;52.370;9.748;2023-03-13T07:25:08;9.40;99.90
8888;DHT22;4480;52.370;9.748;2023-03-13T07:27:35;9.50;99.90
8888;DHT22;4480;52.370;9.748;2023-03-13T07:30:03;9.50;99.90
8888;DHT22;4480;52.370;9.748;2023-03-13T07:32:31;9.50;99.90
8888;DHT22;4480;52.370;9.748;2023-03-13T07:34:58;9.60;99.90
8888;DHT22;4480;52.370;9.748;2023-03-13T07:37:26;9.60;99.90
8888;DHT22;4480;52.370;9.748;2023-03-13T07:39:53;9.70;99.90
8888;DHT22;4480;52.370;9.748;2023-03-13T07:42:20;9.70;99.90
8888;DHT22;4480;52.370;9.748;2023-03-13T07:44:46;9.70;99.90
8888;DHT22;4480;52.370;9.748;2023-03-13T07:47:13;9.70;99.90
8888;DHT22;4480;52.370;9.748;2023-03-13T07:49:40;9.70;99.90
8888;DHT22;4480;52.370;9.748;2023-03-13T07:52:08;9.80;99.90
8888;DHT22;4480;52.370;9.748;2023-03-13T07:54:36;9.80;99.90
8888;DHT22;4480;52.370;9.748;2023-03-13T07:57:03;9.80;99.90
8888;DHT22;4480;52.370;9.748;2023-03-13T07:59:30;9.90;99.90
8888;DHT22;4480;52.370;9.748;2023-03-13T08:01:56;9.90;99.90
8888;DHT22;4480;52.370;9.748;2023-03-13T08:04:23;10.00;99.90
8888;DHT22;4480;52.370;9.748;2023-03-13T08:06:50;10.00;99.90
8888;DHT22;4480;52.370;9.748;2023-03-13T08:09:19;10.10;99.90
8888;DHT22;4480;52.370;9.748;2023-03-13T08:11:47;10.10;99.90
8888;DHT22;4480;52.370;9.748;2023-03-13T08:14:13;10.20;99.90
8888;DHT22;4480;52.370;9.748;2023-03-13T08:16:40;10.30;99.90
8888;DHT22;4480;52.370;9.748;2023-03-13T08:19:07;10.30;99.90
8888;DHT22;4480;52.370;9.748;2023-03-13T08:21:35;10.40;99.90
8888;DHT22;4480;52.370;9.748;2023-03-13T08:24:04;10.40;99.90
8888;DHT22;4480;52.370;9.748;2023-03-13T08:26:32;10.50;99.90
8888;DHT22;4480;52.370;9.748;2023-03-13T08:29:02;10.60;99.90
8888;DHT22;4480;52.370;9.748;2023-03-13T08:31:32;10.60;99.90
8888;DHT22;4480;52.370;9.748;2023-03-13T08:33:59;10.70;99.90
8888;DHT22;4480;52.370;9.748;2023-03-13T08:36:27;10.80;99.90
8888;DHT22;4480;52.370;9.748;2023-03-13T08:38:57;10.80;99.90
8888;DHT22;4480;52.370;9.748;2023-03-13T08:41:25;10.90;99.90
8888;DHT22;4480;52.370;9.748;2023-03-13T08:43:53;10.90;99.90
8888;DHT22;4480;52.370;9.748;2023-03-13T08:46:22;11.00;99.90
8888;DHT22;4480;52.370;9.748;2023-03-13T08:48:49;11.10;99.90
8888;DHT22;4480;52.370;9.748;2023-03-13T08:51:17;11.20;99.90
8888;DHT22;4480;52.370;9.748;2023-03-13T08:53:44;11.30;99.90
8888;DHT22;4480;52.370;9.748;2023-03-13T08:56:13;11.40;99.90
8888;DHT22;4480;52.370;9.748;2023-03-13T08:58:41;11.40;99.90
8888;DHT22;4480;52.370;9.748;2023-03-13T09:01:09;11.50;99.90
8888;DHT22;4480;52.370;9.748;2023-03-13T09:03:38;11.60;99.90
8888;DHT22;4480;52.370;9.748;2023-03-13T09:06:06;11.70;99.90
8888;DHT22;4480;52.370;9.748;2023-03-13T09:08:33;11.80;99.90
8888;DHT22;4480;52.370;9.748;2023-03-13T09:11:02;11.80;99.90
8888;DHT22;4480;52.370;9.748;2023-03-13T09:13:30;11.90;99.90
8888;DHT22;4480;52.370;9.748;2023-03-13T09:15:59;12.00;99.90
8888;DHT22;4480;52.370;9.748;2023-03-13T09:18:26;12.10;99.90
8888;DHT22;4480;52.370;9.748;2023-03-13T09:20:55;12.20;99.90
8888;DHT22;4480;52.370;9.748;2023-03-13T09:23:22;12.20;99.90
8888;DHT22;4480;52.370;9.748;2023-03-13T09:25:51;12.30;99.90
8888;DHT22;4480;52.370;9.748;2023-03-13T09:28:18;12.30;99.90
8888;DHT22;4480;52.370;9.748;2023-03-13T09:30:45;12.40;99.90
8888;DHT22;4480;52.370;9.748;2023-03-13T09:33:14;12.50;99.90
8888;DHT22;4480;52.370;9.748;2023-03-13T09:35:41;12.60;99.90
8888;DHT22;4480;52.370;9.748;2023-03-13T09:38:09;12.70;99.90
8888;DHT22;4480;52.370;9.748;2023-03-13T09:40:39;12.80;99.90
8888;DHT22;4480;52.370;9.748;2023-03-13T09:43:18;12.80;99.90
8888;DHT22;4480;52.370;9.748;2023-03-13T09:45:48;12.90;99.90
8888;DHT22;4480;52.370;9.748;2023-03-13T09:48:25;13.00;99.90
8888;DHT22;4480;52.370;9.748;2023-03-13T09:50:59;13.00;99.90
8888;DHT22;4480;52.370;9.748;2023-03-13T09:53:33;13.10;99.90
8888;DHT22;4480;52.370;9.748;2023-03-13T09:56:04;13.10;99.90
8888;DHT22;4480;52.370;9.748;2023-03-13T09:58:33;13.20;99.90
8888;DHT22;4480;52.370;9.748;2023-03-13T10:01:02;13.30;99.90
8888;DHT22;4480;52.370;9.748;2023-03-13T10:03:32;13.40;99.90
8888;DHT22;4480;52.370;9.748;2023-03-13T10:06:04;13.40;99.90
8888;DHT22;4480;52.370;9.748;2023-03-13T10:08:34;13.50;99.90
8888;DHT22;4480;52.370;9.748;2023-03-13T10:11:04;13.50;99.90
8888;DHT22;4480;52.370;9.748;2023-03-13T10:13:37;13.50;99.90
8888;DHT22;4480;52.370;9.748;2023-03-13T10:16:08;13.50;99.90
8888;DHT22;4480;52.370;9.748;2023-03-13T10:18:36;13.50;99.90
8888;DHT22;4480;52.370;9.748;2023-03-13T10:21:13;13.50;99.90
8888;DHT22;4480;52.370;9.748;2023-03-13T10:23:49;13.60;99.90
8888;DHT22;4480;52.370;9.748;2023-03-13T10:26:21;13.50;99.90
8888;DHT22;4480;52.370;9.748;2023-03-13T10:28:49;13.50;99.90
8888;DHT22;4480;52.370;9.748;2023-03-13T10:31:21;13.60;99.90
8888;DHT22;4480;52.370;9.748;2023-03-13T10:33:51;13.60;99.90
8888;DHT22;4480;52.370;9.748;2023-03-13T10:36:18;13.60;99.90
8888;DHT22;4480;52.370;9.748;2023-03-13T10:38:48;13.80;99.90
8888;DHT22;4480;52.370;9.748;2023-03-13T10:41:29;13.90;99.90
8888;DHT22;4480;52.370;9.748;2023-03-13T10:43:59;14.00;99.90
8888;DHT22;4480;52.370;9.748;2023-03-13T10:46:28;14.10;99.90
8888;DHT22;4480;52.370;9.748;2023-03-13T10:48:58;14.30;99.90
8888;DHT22;4480;52.370;9.748;2023-03-13T10:51:33;14.50;99.90
8888;DHT22;4480;52.370;9.748;2023-03-13T10:54:13;14.70;99.90
8888;DHT22;4480;52.370;9.748;2023-03-13T10:56:40;14.90;99.90
8888;DHT22;4480;52.370;9.748;2023-03-13T10:59:21;15.10;99.90
8888;DHT22;4480;52.370;9.748;2023-03-13T11:01:49;15.30;99.90
8888;DHT22;4480;52.370;9.748;2023-03-13T11:04:27;15.40;99.90
8888;DHT22;4480;52.370;9.748;2023-03-13T11:07:00;15.50;99.90
8888;DHT22;4480;52.370;9.748;2023-03-13T11:09:28;15.80;99.90
8888;DHT22;4480;52.370;9.748;2023-03-13T11:12:01;16.00;99.90
8888;DHT22;4480;52.370;9.748;2023-03-13T11:14:29;16.00;99.90
8888;DHT22;4480;52.370;9.748;2023-03-13T11:17:01;15.90;99.90
8888;DHT22;4480;52.370;9.748;2023-03-13T11:19:36;15.80;99.90
8888;DHT22;4480;52.370;9.748;2023-03-13T11:22:22;15.70;99.90
8888;DHT22;4480;52.370;9.748;2023-03-13T11:25:00;15.70;99.90
8888;DHT22;4480;52.370;9.748;2023-03-13T11:27:34;16.00;99.90
8888;DHT22;4480;52.370;9.748;2023-03-13T11:30:12;16.20;99.90
8888;DHT22;4480;52.370;9.748;2023-03-13T11:32:43;16.30;99.90
8888;DHT22;4480;52.370;9.748;2023-03-13T11:35:22;16.40;99.90
8888;DHT22;4480;52.370;9.748;2023-03-13T11:37:54;16.40;99.90
8888;DHT22;4480;52.370;9.748;2023-03-13T11:40:27;16.60;99.90
8888;DHT22;4480;52.370;9.748;2023-03-13T11:43:08;16.80;99.90
8888;DHT22;4480;52.370;9.748;2023-03-13T11:46:08;16.90;99.90
8888;DHT22;4480;52.370;9.748;2023-03-13T11:49:02;16.90;99.90
8888;DHT22;4480;52.370;9.748;2023-03-13T11:51:42;17.00;99.90
8888;DHT22;4480;52.370;9.748;2023-03-13T11:54:33;17.00;99.90
8888;DHT22;4480;52.370;9.748;2023-03-13T11:57:09;17.00;99.90
8888;DHT22;4480;52.370;9.748;2023-03-13T11:59:44;17.00;99.90
8888;DHT22;4480;52.370;9.748;2023-03-13T12:02:21;17.00;99.30
8888;DHT22;4480;52.370;9.748;2023-03-13T12:04:53;17.10;98.60
8888;DHT22;4480;52.370;9.748;2023-03-13T12:07:25;17.20;97.70
8888;DHT22;4480;52.370;9.748;2023-03-13T12:09:57;17.20;97.00
8888;DHT22;4480;52.370;9.748;2023-03-13T12:12:34;17.30;96.60
8888;DHT22;4480;52.370;9.748;2023-03-13T12:15:14;17.40;95.70
8888;DHT22;4480;52.370;9.748;2023-03-13T12:17:47;17.40;95.00
8888;DHT22;4480;52.370;9.748;2023-03-13T12:20:20;17.40;94.60
8888;DHT22;4480;52.370;9.748;2023-03-13T12:22:54;17.30;93.60
8888;DHT22;4480;52.370;9.748;2023-03-13T12:25:24;17.30;92.50
8888;DHT22;4480;52.370;9.748;2023-03-13T12:28:00;17.30;92.10
8888;DHT22;4480;52.370;9.748;2023-03-13T12:30:34;17.30;91.00
8888;DHT22;4480;52.370;9.748;2023-03-13T12:33:15;17.50;90.20
8888;DHT22;4480;52.370;9.748;2023-03-13T12:35:45;17.60;87.10
8888;DHT22;4480;52.370;9.748;2023-03-13T12:38:18;17.60;85.60
8888;DHT22;4480;52.370;9.748;2023-03-13T12:40:49;17.70;85.50
8888;DHT22;4480;52.370;9.748;2023-03-13T12:43:23;17.80;85.70
8888;DHT22;4480;52.370;9.748;2023-03-13T12:46:09;18.00;84.40
8888;DHT22;4480;52.370;9.748;2023-03-13T12:48:58;18.10;82.70
8888;DHT22;4480;52.370;9.748;2023-03-13T12:51:38;18.30;82.00
8888;DHT22;4480;52.370;9.748;2023-03-13T12:54:31;18.30;81.20
8888;DHT22;4480;52.370;9.748;2023-03-13T13:00:06;18.10;76.50
8888;DHT22;4480;52.370;9.748;2023-03-13T13:02:38;17.90;77.40
8888;DHT22;4480;52.370;9.748;2023-03-13T13:05:17;17.80;78.50
8888;DHT22;4480;52.370;9.748;2023-03-13T13:07:52;17.80;79.10
8888;DHT22;4480;52.370;9.748;2023-03-13T13:10:21;17.80;79.40
8888;DHT22;4480;52.370;9.748;2023-03-13T13:13:17;17.80;80.30
8888;DHT22;4480;52.370;9.748;2023-03-13T13:15:46;17.80;80.40
8888;DHT22;4480;52.370;9.748;2023-03-13T13:18:23;17.90;80.30
8888;DHT22;4480;52.370;9.748;2023-03-13T13:21:21;17.90;80.10
8888;DHT22;4480;52.370;9.748;2023-03-13T13:23:52;17.90;79.80
8888;DHT22;4480;52.370;9.748;2023-03-13T13:26:46;18.00;79.20
8888;DHT22;4480;52.370;9.748;2023-03-13T13:32:36;18.10;78.00
8888;DHT22;4480;52.370;9.748;2023-03-13T13:35:17;18.00;77.30
8888;DHT22;4480;52.370;9.748;2023-03-13T13:37:45;18.00;77.10
8888;DHT22;4480;52.370;9.748;2023-03-13T13:40:25;18.00;76.00
8888;DHT22;4480;52.370;9.748;2023-03-13T13:42:54;18.00;74.60
8888;DHT22;4480;52.370;9.748;2023-03-13T13:45:27;17.90;73.60
8888;DHT22;4480;52.370;9.748;2023-03-13T13:48:26;17.80;73.20
8888;DHT22;4480;52.370;9.748;2023-03-13T13:54:00;17.80;72.20
8888;DHT22;4480;52.370;9.748;2023-03-13T13:56:48;17.80;71.10
8888;DHT22;4480;52.370;9.748;2023-03-13T13:59:35;17.90;68.30
8888;DHT22;4480;52.370;9.748;2023-03-13T14:02:25;17.90;67.90
8888;DHT22;4480;52.370;9.748;2023-03-13T14:05:00;18.00;67.20
8888;DHT22;4480;52.370;9.748;2023-03-13T14:07:29;18.10;66.10
8888;DHT22;4480;52.370;9.748;2023-03-13T14:10:05;18.00;66.00
8888;DHT22;4480;52.370;9.748;2023-03-13T14:12:34;18.10;66.30
8888;DHT22;4480;52.370;9.748;2023-03-13T14:15:13;18.10;66.00
8888;DHT22;4480;52.370;9.748;2023-03-13T14:17:43;18.10;65.80
8888;DHT22;4480;52.370;9.748;2023-03-13T14:20:26;18.20;65.70
8888;DHT22;4480;52.370;9.748;2023-03-13T14:22:55;18.20;65.20
8888;DHT22;4480;52.370;9.748;2023-03-13T14:25:23;18.20;65.30
8888;DHT22;4480;52.370;9.748;2023-03-13T14:27:51;18.20;65.10
8888;DHT22;4480;52.370;9.748;2023-03-13T14:30:19;18.30;65.40
8888;DHT22;4480;52.370;9.748;2023-03-13T14:32:47;18.20;65.70
8888;DHT22;4480;52.370;9.748;2023-03-13T14:35:15;18.20;66.10
8888;DHT22;4480;52.370;9.748;2023-03-13T14:37:46;18.10;66.40
8888;DHT22;4480;52.370;9.748;2023-03-13T14:40:24;18.00;66.90
8888;DHT22;4480;52.370;9.748;2023-03-13T14:42:52;17.90;67.40
8888;DHT22;4480;52.370;9.748;2023-03-13T14:45:24;17.80;67.70
8888;DHT22;4480;52.370;9.748;2023-03-13T14:47:52;17.80;68.30
8888;DHT22;4480;52.370;9.748;2023-03-13T14:50:21;17.70;68.50
8888;DHT22;4480;52.370;9.748;2023-03-13T14:52:52;17.70;68.50
8888;DHT22;4480;52.370;9.748;2023-03-13T14:55:33;17.70;68.50
8888;DHT22;4480;52.370;9.748;2023-03-13T14:58:02;17.80;68.40
8888;DHT22;4480;52.370;9.748;2023-03-13T15:00:35;17.70;68.40
8888;DHT22;4480;52.370;9.748;2023-03-13T15:03:19;17.60;68.20
8888;DHT22;4480;52.370;9.748;2023-03-13T15:05:48;17.50;68.10
8888;DHT22;4480;52.370;9.748;2023-03-13T15:08:18;17.40;68.40
8888;DHT22;4480;52.370;9.748;2023-03-13T15:10:45;17.30;68.60
8888;DHT22;4480;52.370;9.748;2023-03-13T15:13:16;17.30;68.70
8888;DHT22;4480;52.370;9.748;2023-03-13T15:15:43;17.40;69.00
8888;DHT22;4480;52.370;9.748;2023-03-13T15:18:17;17.40;69.00
8888;DHT22;4480;52.370;9.748;2023-03-13T15:20:48;17.50;69.20
8888;DHT22;4480;52.370;9.748;2023-03-13T15:23:16;17.50;69.20
8888;DHT22;4480;52.370;9.748;2023-03-13T15:25:43;17.50;69.40
8888;DHT22;4480;52.370;9.748;2023-03-13T15:28:14;17.40;69.70
8888;DHT22;4480;52.370;9.748;2023-03-13T15:30:41;17.40;70.10
8888;DHT22;4480;52.370;9.748;2023-03-13T15:33:12;17.40;70.70
8888;DHT22;4480;52.370;9.748;2023-03-13T15:35:40;17.40;71.30
8888;DHT22;4480;52.370;9.748;2023-03-13T15:38:11;17.30;72.00
8888;DHT22;4480;52.370;9.748;2023-03-13T15:40:41;17.30;72.70
8888;DHT22;4480;52.370;9.748;2023-03-13T15:43:08;17.30;73.00
8888;DHT22;4480;52.370;9.748;2023-03-13T15:45:36;17.30;73.00
8888;DHT22;4480;52.370;9.748;2023-03-13T15:48:13;17.30;72.70
8888;DHT22;4480;52.370;9.748;2023-03-13T15:50:40;17.20;71.70
8888;DHT22;4480;52.370;9.748;2023-03-13T15:53:16;17.20;71.70
8888;DHT22;4480;52.370;9.748;2023-03-13T15:55:46;17.20;71.20
8888;DHT22;4480;52.370;9.748;2023-03-13T15:58:14;17.10;71.40
8888;DHT22;4480;52.370;9.748;2023-03-13T16:00:42;17.10;71.60
8888;DHT22;4480;52.370;9.748;2023-03-13T16:03:14;17.00;71.90
8888;DHT22;4480;52.370;9.748;2023-03-13T16:05:41;16.90;72.40
8888;DHT22;4480;52.370;9.748;2023-03-13T16:08:12;16.80;72.70
8888;DHT22;4480;52.370;9.748;2023-03-13T16:10:40;16.80;73.20
8888;DHT22;4480;52.370;9.748;2023-03-13T16:13:08;16.70;73.60
8888;DHT22;4480;52.370;9.748;2023-03-13T16:15:36;16.70;74.10
8888;DHT22;4480;52.370;9.748;2023-03-13T16:18:03;16.60;74.70
8888;DHT22;4480;52.370;9.748;2023-03-13T16:20:31;16.50;75.10
8888;DHT22;4480;52.370;9.748;2023-03-13T16:22:58;16.50;75.70
8888;DHT22;4480;52.370;9.748;2023-03-13T16:25:29;16.40;76.20
8888;DHT22;4480;52.370;9.748;2023-03-13T16:27:56;16.30;76.80
8888;DHT22;4480;52.370;9.748;2023-03-13T16:30:26;16.30;77.30
8888;DHT22;4480;52.370;9.748;2023-03-13T16:32:53;16.20;77.90
8888;DHT22;4480;52.370;9.748;2023-03-13T16:35:20;16.20;78.20
8888;DHT22;4480;52.370;9.748;2023-03-13T16:37:48;16.10;78.50
8888;DHT22;4480;52.370;9.748;2023-03-13T16:40:18;16.10;79.10